Terminal Aerodrome Forecast
Issued by NWS

Home | Current Version | Previous Version | Text Only | Print | Product List | Glossary On
Versions: 1 2 3 4 5 6 7 8 9 10 11 12
000
FTUS44 KLZK 282300
TAFLIT
TAF
KLIT 282326Z 2900/2924 15004KT P6SM SCT250
     FM291500 18007KT P6SM SCT050 SCT110
     FM291800 22010KT P6SM VCSH BKN050 PROB30 2919/2923 5SM -TSRA
      BKN025CB=

USA.gov is the U.S. government's official web portal to all federal, state and local government web resources and services.